Time;durP1;ratioP1;P1;durP2;ratioP2;P2;SDS_P1;SDS_P2;PMS_P1;PMS_P2;Temp;Humidity;BMP_temperature;BMP_pressure;BME280_temperature;BME280_humidity;BME280_pressure;Samples;Min_cycle;Max_cycle;Signal;HPM_P1;HPM_P2
2022/04/12 00:01:59;;;;;;;28.15;15.30;;;;;;;3.06;72.63;101049.26;1703458;83;25778;-77
2022/04/12 00:04:25;;;;;;;25.17;15.45;;;;;;;3.02;72.42;101057.10;1673847;83;25885;-77
2022/04/12 00:06:51;;;;;;;21.55;14.73;;;;;;;2.94;72.36;101051.14;1698334;83;25783;-77
2022/04/12 00:09:17;;;;;;;25.30;15.08;;;;;;;2.90;72.39;101056.80;1695270;83;27699;-77
2022/04/12 00:11:44;;;;;;;23.05;14.60;;;;;;;2.86;72.44;101057.55;1689945;84;26445;-77
2022/04/12 00:14:10;;;;;;;22.60;14.38;;;;;;;2.84;72.50;101060.81;1717819;83;25904;-77
2022/04/12 00:16:39;;;;;;;24.87;15.28;;;;;;;2.79;72.71;101065.62;1717993;83;25975;-77
2022/04/12 00:19:06;;;;;;;28.27;14.73;;;;;;;2.75;72.81;101059.39;1717710;83;25758;-77
2022/04/12 00:21:35;;;;;;;22.93;14.73;;;;;;;2.71;72.69;101058.80;1717562;83;27466;-78
2022/04/12 00:24:05;;;;;;;25.05;16.07;;;;;;;2.68;73.02;101055.08;1717640;83;26424;-76
2022/04/12 00:26:32;;;;;;;25.62;15.55;;;;;;;2.60;72.78;101052.23;1697712;84;26234;-77
2022/04/12 00:29:00;;;;;;;24.75;16.20;;;;;;;2.49;72.92;101050.93;1671496;84;25790;-77
2022/04/12 00:31:26;;;;;;;24.23;15.93;;;;;;;2.43;72.96;101052.75;1717965;83;25816;-77
2022/04/12 00:33:52;;;;;;;27.15;16.60;;;;;;;2.41;72.72;101057.80;1717575;83;27438;-77
2022/04/12 00:36:18;;;;;;;23.62;15.18;;;;;;;2.39;73.17;101056.61;1717750;83;25762;-77
2022/04/12 00:38:45;;;;;;;26.27;15.50;;;;;;;2.40;73.28;101066.20;1717989;83;25304;-77
2022/04/12 00:41:11;;;;;;;32.85;16.73;;;;;;;2.32;73.14;101060.70;1716340;83;25746;-77
2022/04/12 00:43:38;;;;;;;29.15;15.63;;;;;;;2.26;73.30;101060.72;1683630;83;25863;-77
2022/04/12 00:46:05;;;;;;;29.30;16.57;;;;;;;2.25;73.22;101064.78;1683965;85;27452;-77
2022/04/12 00:48:33;;;;;;;29.63;17.12;;;;;;;2.18;73.23;101063.11;1683801;84;25724;-77
2022/04/12 00:51:00;;;;;;;28.57;16.80;;;;;;;2.14;73.18;101065.64;1683917;84;25788;-77
2022/04/12 00:53:28;;;;;;;25.55;14.68;;;;;;;2.12;73.40;101063.60;1683424;83;26554;-77
2022/04/12 00:55:55;;;;;;;27.50;15.03;;;;;;;2.08;73.43;101063.48;1683848;84;25930;-77
2022/04/12 00:58:22;;;;;;;27.67;14.80;;;;;;;2.04;73.43;101068.66;1683695;84;27523;-77
2022/04/12 01:00:49;;;;;;;26.73;14.58;;;;;;;1.98;73.26;101065.66;1683750;84;25884;-77
2022/04/12 01:03:16;;;;;;;27.37;15.68;;;;;;;1.94;73.28;101058.46;1683675;85;25361;-77
2022/04/12 01:05:43;;;;;;;27.67;15.43;;;;;;;1.90;73.34;101058.35;1682321;84;26245;-77
2022/04/12 01:08:09;;;;;;;26.48;14.83;;;;;;;1.90;73.48;101063.63;1681934;84;25831;-77
2022/04/12 01:10:37;;;;;;;28.40;17.02;;;;;;;1.91;73.79;101062.66;1681639;84;27615;-77
2022/04/12 01:13:04;;;;;;;24.60;15.50;;;;;;;1.91;73.92;101066.62;1681345;84;26080;-77
2022/04/12 01:15:30;;;;;;;28.92;15.68;;;;;;;1.88;73.94;101066.84;1666304;86;25821;-76
2022/04/12 01:17:57;;;;;;;23.87;13.88;;;;;;;1.86;73.98;101060.84;1684046;84;25763;-77
2022/04/12 01:20:28;;;;;;;24.10;14.53;;;;;;;1.85;74.00;101067.58;1683772;85;25981;-77
2022/04/12 01:23:09;;;;;;;21.73;14.33;;;;;;;1.79;73.92;101063.63;1655527;85;28305;-77
2022/04/12 01:25:38;;;;;;;24.82;14.47;;;;;;;1.76;73.94;101062.53;1655831;86;25817;-77
2022/04/12 01:28:09;;;;;;;25.80;15.05;;;;;;;1.74;73.86;101066.24;1656336;86;25761;-78
2022/04/12 01:30:36;;;;;;;26.97;15.03;;;;;;;1.72;74.05;101070.33;1655876;86;26312;-77
2022/04/12 01:33:04;;;;;;;24.05;15.35;;;;;;;1.69;73.97;101068.42;1655948;86;25816;-77
2022/04/12 01:35:31;;;;;;;25.77;14.38;;;;;;;1.67;74.08;101071.66;1656110;86;27487;-77
2022/04/12 01:37:57;;;;;;;25.08;14.90;;;;;;;1.66;74.25;101070.81;1656158;86;25795;-77
2022/04/12 01:40:23;;;;;;;27.15;14.90;;;;;;;1.61;74.17;101071.63;1667816;85;25942;-77
2022/04/12 01:42:52;;;;;;;26.02;14.95;;;;;;;1.55;74.02;101077.39;1708431;82;26023;-77
2022/04/12 01:45:18;;;;;;;25.27;15.48;;;;;;;1.49;74.01;101083.15;1672406;85;26463;-77
2022/04/12 01:47:44;;;;;;;34.70;17.37;;;;;;;1.45;74.01;101083.84;1672550;84;28328;-77
2022/04/12 01:50:10;;;;;;;25.00;16.30;;;;;;;1.42;74.13;101082.77;1672481;84;25764;-77
2022/04/12 01:52:36;;;;;;;29.82;17.27;;;;;;;1.43;74.20;101080.98;1672131;85;25858;-77
2022/04/12 01:55:06;;;;;;;30.25;17.40;;;;;;;1.41;74.22;101086.86;1672399;85;26278;-77
2022/04/12 01:57:32;;;;;;;27.02;16.67;;;;;;;1.40;74.42;101082.52;1672610;85;25920;-77
2022/04/12 01:59:59;;;;;;;31.15;17.23;;;;;;;1.42;74.72;101084.56;1672616;85;28277;-77
2022/04/12 02:02:26;;;;;;;31.97;18.35;;;;;;;1.41;74.73;101086.86;1671984;85;25965;-76
2022/04/12 02:04:52;;;;;;;31.82;18.80;;;;;;;1.37;74.65;101089.34;1670055;84;26525;-77
2022/04/12 02:07:19;;;;;;;34.83;19.73;;;;;;;1.32;74.64;101094.99;1655828;86;25871;-77
2022/04/12 02:09:45;;;;;;;35.65;21.42;;;;;;;1.28;74.80;101093.52;1656109;86;25755;-76
2022/04/12 02:12:11;;;;;;;33.92;20.27;;;;;;;1.24;74.69;101088.11;1655594;86;27638;-76
2022/04/12 02:14:37;;;;;;;36.03;19.67;;;;;;;1.24;74.69;101094.70;1655567;85;25979;-77
2022/04/12 02:17:06;;;;;;;35.35;22.90;;;;;;;1.25;74.92;101092.44;1656263;86;25794;-77
2022/04/12 02:19:32;;;;;;;40.85;25.85;;;;;;;1.24;74.91;101084.15;1655859;86;26258;-77
2022/04/12 02:21:58;;;;;;;40.50;24.70;;;;;;;1.24;74.92;101093.38;1656071;86;26454;-77
2022/04/12 02:24:25;;;;;;;43.28;24.47;;;;;;;1.22;75.02;101095.30;1655761;86;27472;-77
2022/04/12 02:26:51;;;;;;;41.40;25.25;;;;;;;1.20;74.93;101095.05;1655920;85;26575;-77
2022/04/12 02:29:17;;;;;;;35.63;23.87;;;;;;;1.18;74.81;101097.80;1645085;86;25871;-77
2022/04/12 02:31:43;;;;;;;37.75;24.02;;;;;;;1.17;74.68;101100.56;1636531;86;25865;-77
2022/04/12 02:34:10;;;;;;;40.33;22.93;;;;;;;1.14;74.59;101102.95;1663336;85;25556;-77
2022/04/12 02:36:36;;;;;;;36.05;22.77;;;;;;;1.13;74.55;101106.56;1666650;85;27520;-77
2022/04/12 02:39:04;;;;;;;37.20;24.77;;;;;;;1.11;74.62;101109.77;1666127;85;25866;-76
2022/04/12 02:41:30;;;;;;;35.33;24.80;;;;;;;1.09;74.67;101109.04;1666524;85;25855;-76
2022/04/12 02:43:56;;;;;;;35.13;23.95;;;;;;;1.08;74.73;101114.44;1666437;85;25956;-77
2022/04/12 02:46:22;;;;;;;39.63;25.05;;;;;;;1.08;74.73;101118.39;1666193;85;25781;-76
2022/04/12 02:48:49;;;;;;;35.80;21.90;;;;;;;1.06;74.82;101121.63;1666416;85;28356;-77
2022/04/12 02:51:15;;;;;;;37.17;21.95;;;;;;;1.06;74.91;101115.03;1665954;85;26560;-77
2022/04/12 02:53:41;;;;;;;37.17;22.85;;;;;;;1.04;74.93;101116.47;1660450;85;26016;-77
2022/04/12 02:56:07;;;;;;;36.33;23.62;;;;;;;1.04;74.91;101114.30;1665869;85;26309;-77
2022/04/12 02:58:34;;;;;;;41.13;24.90;;;;;;;1.03;74.99;101118.73;1666855;85;26438;-76
2022/04/12 03:01:00;;;;;;;40.80;25.55;;;;;;;1.01;75.09;101123.28;1666245;85;27447;-77
2022/04/12 03:03:26;;;;;;;43.20;24.23;;;;;;;1.00;75.04;101121.61;1666432;85;25896;-77
2022/04/12 03:05:52;;;;;;;39.80;24.57;;;;;;;0.98;75.28;101124.84;1669186;85;26424;-77
2022/04/12 03:08:18;;;;;;;39.18;24.25;;;;;;;0.94;75.20;101120.72;1672453;85;25787;-77
2022/04/12 03:10:45;;;;;;;36.00;24.63;;;;;;;0.97;75.22;101122.30;1672617;85;25778;-77
2022/04/12 03:13:11;;;;;;;44.40;23.30;;;;;;;0.94;75.02;101121.22;1672363;85;28446;-77
2022/04/12 03:15:37;;;;;;;38.23;23.32;;;;;;;0.90;75.09;101123.22;1672855;85;25791;-77
2022/04/12 03:18:03;;;;;;;38.08;23.95;;;;;;;0.90;75.19;101129.81;1672070;85;25852;-77
2022/04/12 03:20:29;;;;;;;39.05;23.05;;;;;;;0.89;75.14;101129.47;1666594;84;26259;-76
2022/04/12 03:22:56;;;;;;;38.00;22.73;;;;;;;0.88;75.18;101134.36;1676500;84;25821;-77
2022/04/12 03:25:22;;;;;;;41.55;24.50;;;;;;;0.87;75.12;101135.80;1672503;85;28405;-77
2022/04/12 03:27:48;;;;;;;46.50;25.02;;;;;;;0.87;75.16;101138.44;1661171;85;25891;-76
2022/04/12 03:30:15;;;;;;;45.03;25.88;;;;;;;0.85;75.36;101134.60;1672875;85;26004;-77
2022/04/12 03:32:41;;;;;;;40.28;24.40;;;;;;;0.85;75.43;101132.44;1672635;85;26506;-77
2022/04/12 03:35:08;;;;;;;41.63;26.07;;;;;;;0.83;75.60;101131.23;1672444;85;25836;-77
2022/04/12 03:37:34;;;;;;;40.20;22.02;;;;;;;0.82;75.65;101136.13;1673170;85;28212;-77
2022/04/12 03:40:02;;;;;;;43.23;22.48;;;;;;;0.85;75.72;101145.63;1672477;85;25895;-76
2022/04/12 03:42:28;;;;;;;38.30;23.65;;;;;;;0.83;75.77;101144.42;1671307;85;25638;-77
2022/04/12 03:44:55;;;;;;;38.55;23.50;;;;;;;0.84;75.78;101153.16;1671967;84;25790;-77
2022/04/12 03:47:21;;;;;;;42.67;25.62;;;;;;;0.81;75.76;101154.24;1708286;83;26405;-77
2022/04/12 03:49:47;;;;;;;39.10;23.50;;;;;;;0.80;75.72;101148.59;1677245;84;27499;-76
2022/04/12 03:52:13;;;;;;;39.58;24.70;;;;;;;0.78;75.65;101146.07;1707486;81;26029;-76
2022/04/12 03:54:39;;;;;;;40.98;25.45;;;;;;;0.76;75.80;101144.02;1710314;81;25845;-77
2022/04/12 03:57:06;;;;;;;37.67;22.82;;;;;;;0.73;75.70;101146.02;1671506;84;25871;-77
2022/04/12 03:59:32;;;;;;;37.38;21.95;;;;;;;0.72;75.72;101156.22;1672243;84;25921;-77
2022/04/12 04:01:58;;;;;;;38.95;23.10;;;;;;;0.69;75.73;101153.32;1671796;84;27893;-77
2022/04/12 04:04:24;;;;;;;42.08;22.22;;;;;;;0.69;75.77;101156.42;1669104;84;25781;-77
2022/04/12 04:06:51;;;;;;;38.98;23.10;;;;;;;0.69;75.87;101159.06;1702248;83;26462;-77
2022/04/12 04:09:17;;;;;;;38.88;23.27;;;;;;;0.70;75.96;101162.92;1713000;83;25888;-77
2022/04/12 04:11:43;;;;;;;39.70;24.30;;;;;;;0.71;76.08;101172.50;1712039;83;25806;-77
2022/04/12 04:14:10;;;;;;;37.53;23.12;;;;;;;0.73;76.17;101169.75;1705855;83;28476;-77
2022/04/12 04:16:38;;;;;;;35.43;23.42;;;;;;;0.76;76.39;101171.70;1704201;83;25851;-77
2022/04/12 04:19:08;;;;;;;40.17;24.85;;;;;;;0.76;76.42;101174.81;1707780;83;25788;-78
2022/04/12 04:21:33;;;;;;;40.08;24.47;;;;;;;0.77;76.48;101174.70;1712340;83;25812;-77
2022/04/12 04:24:00;;;;;;;39.70;24.87;;;;;;;0.78;76.64;101169.80;1711872;83;25749;-77
2022/04/12 04:26:26;;;;;;;40.85;25.43;;;;;;;0.80;76.75;101171.00;1712717;83;27442;-77
2022/04/12 04:28:52;;;;;;;45.45;26.00;;;;;;;0.79;76.72;101168.02;1713129;83;26582;-77
2022/04/12 04:31:18;;;;;;;40.60;23.75;;;;;;;0.79;76.75;101171.47;1713045;83;26699;-78
2022/04/12 04:33:44;;;;;;;40.08;24.00;;;;;;;0.79;76.81;101169.33;1712787;83;25762;-77
2022/04/12 04:36:11;;;;;;;41.73;24.75;;;;;;;0.79;76.88;101173.29;1713399;83;25881;-77
2022/04/12 04:38:37;;;;;;;42.80;25.50;;;;;;;0.81;76.94;101175.80;1713139;83;27377;-78
2022/04/12 04:41:03;;;;;;;34.92;23.30;;;;;;;0.83;76.98;101176.53;1712818;83;26485;-78
2022/04/12 04:43:29;;;;;;;40.80;24.63;;;;;;;0.83;77.00;101168.63;1712961;83;25769;-78
2022/04/12 04:45:56;;;;;;;42.23;25.72;;;;;;;0.82;77.13;101170.88;1713214;83;25798;-78
2022/04/12 04:48:22;;;;;;;39.48;25.32;;;;;;;0.82;77.26;101174.37;1713162;83;25941;-78
2022/04/12 04:50:48;;;;;;;43.10;24.75;;;;;;;0.82;77.29;101177.47;1713275;83;27446;-77
2022/04/12 04:53:15;;;;;;;40.78;24.63;;;;;;;0.83;77.20;101184.45;1712735;83;26471;-78
2022/04/12 04:55:43;;;;;;;42.55;24.57;;;;;;;0.82;77.27;101182.28;1700979;83;25810;-78
2022/04/12 04:58:10;;;;;;;39.85;26.97;;;;;;;0.85;77.65;101183.39;1701039;83;25983;-77
2022/04/12 05:00:37;;;;;;;42.00;25.80;;;;;;;0.88;77.70;101189.74;1713187;83;26586;-77
2022/04/12 05:03:06;;;;;;;42.65;25.50;;;;;;;0.94;77.91;101191.11;1713066;83;27498;-77
2022/04/12 05:05:32;;;;;;;43.00;27.27;;;;;;;1.01;78.08;101188.38;1712821;83;27410;-77
2022/04/12 05:07:59;;;;;;;42.20;27.93;;;;;;;1.06;78.15;101196.80;1717571;83;26471;-78
2022/04/12 05:10:33;;;;;;;52.45;33.48;;;;;;;1.12;78.40;101193.25;1706239;83;25879;-77
2022/04/12 05:13:02;;;;;;;62.50;35.52;;;;;;;1.17;79.14;101192.44;1717308;83;26026;-77
2022/04/12 05:15:28;;;;;;;56.53;37.60;;;;;;;1.25;79.84;101195.83;1718007;83;28031;-77
2022/04/12 05:17:55;;;;;;;61.05;36.75;;;;;;;1.31;80.47;101194.05;1717993;83;25824;-77
2022/04/12 05:20:25;;;;;;;70.55;40.67;;;;;;;1.35;80.68;101196.82;1717528;83;25797;-78
2022/04/12 05:22:52;;;;;;;61.08;36.28;;;;;;;1.41;81.10;101201.17;1717333;82;25869;-78
2022/04/12 05:25:19;;;;;;;48.55;30.27;;;;;;;1.48;81.20;101209.01;1718013;83;26093;-77
2022/04/12 05:27:46;;;;;;;49.95;30.30;;;;;;;1.55;81.26;101214.67;1717737;83;27457;-76
2022/04/12 05:30:13;;;;;;;54.80;31.12;;;;;;;1.61;81.31;101214.68;1717621;83;25844;-78
2022/04/12 05:32:40;;;;;;;54.05;32.40;;;;;;;1.69;81.58;101215.80;1717381;83;25855;-78
2022/04/12 05:35:09;;;;;;;56.75;32.65;;;;;;;1.77;81.96;101222.69;1704176;83;26800;-77
2022/04/12 05:37:52;;;;;;;57.08;33.45;;;;;;;1.84;82.17;101219.11;1703850;83;25854;-78
2022/04/12 05:40:21;;;;;;;55.83;35.48;;;;;;;1.94;82.43;101226.22;1698920;83;27462;-78
2022/04/12 05:42:48;;;;;;;58.00;35.05;;;;;;;2.04;83.01;101227.19;1704379;83;25956;-78
2022/04/12 05:45:16;;;;;;;60.50;36.20;;;;;;;2.15;83.16;101234.30;1705941;83;25801;-78
2022/04/12 05:47:49;;;;;;;57.73;36.73;;;;;;;2.25;83.34;101231.30;1717566;83;25875;-78
2022/04/12 05:50:23;;;;;;;60.48;37.17;;;;;;;2.35;83.52;101234.94;1718051;83;25855;-77
2022/04/12 05:52:49;;;;;;;55.08;34.80;;;;;;;2.48;83.89;101235.64;1717099;83;28318;-78
2022/04/12 05:55:18;;;;;;;59.58;36.50;;;;;;;2.59;84.06;101241.44;1706185;83;25835;-77
2022/04/12 05:58:00;;;;;;;64.92;37.83;;;;;;;2.68;84.19;101242.86;1717652;83;25844;-78
2022/04/12 06:00:30;;;;;;;53.65;34.80;;;;;;;2.81;84.35;101246.70;1706414;83;26264;-77
2022/04/12 06:02:57;;;;;;;57.20;36.55;;;;;;;2.89;84.52;101245.61;1717698;83;25999;-78
2022/04/12 06:05:32;;;;;;;62.03;37.33;;;;;;;3.00;84.73;101248.24;1706184;83;27459;-77
2022/04/12 06:07:59;;;;;;;65.70;37.70;;;;;;;3.10;84.77;101250.03;1717824;83;25949;-77
2022/04/12 06:10:26;;;;;;;67.97;38.58;;;;;;;3.20;84.66;101249.30;1717670;83;25862;-77
2022/04/12 06:12:52;;;;;;;62.65;37.28;;;;;;;3.30;84.54;101254.20;1717551;83;26697;-77
2022/04/12 06:15:19;;;;;;;57.98;35.50;;;;;;;3.38;84.38;101252.61;1717497;83;25963;-78
2022/04/12 06:17:46;;;;;;;56.88;35.40;;;;;;;3.49;84.30;101251.73;1717416;83;27528;-78
2022/04/12 06:20:16;;;;;;;56.63;35.25;;;;;;;3.61;84.54;101258.69;1717451;83;25535;-77
2022/04/12 06:22:43;;;;;;;53.57;32.60;;;;;;;3.74;84.51;101262.83;1717325;83;26618;-77
2022/04/12 06:25:12;;;;;;;50.43;30.77;;;;;;;3.87;84.37;101264.01;1712727;82;26249;-77
2022/04/12 06:27:43;;;;;;;44.65;26.07;;;;;;;3.99;84.62;101262.12;1723200;82;25870;-77
2022/04/12 06:30:16;;;;;;;39.10;24.87;;;;;;;4.10;84.52;101262.92;1717802;83;27474;-77
2022/04/12 06:32:44;;;;;;;47.45;27.80;;;;;;;4.24;84.40;101260.41;1717574;83;25786;-77
2022/04/12 06:35:12;;;;;;;47.43;29.15;;;;;;;4.36;83.68;101260.71;1717942;83;25797;-78
2022/04/12 06:37:40;;;;;;;44.05;26.95;;;;;;;4.48;83.34;101265.80;1717967;82;25838;-78
2022/04/12 06:40:09;;;;;;;39.10;24.82;;;;;;;4.60;83.62;101267.39;1717860;82;25719;-78
2022/04/12 06:42:36;;;;;;;36.83;22.48;;;;;;;4.76;83.70;101272.22;1717553;83;28299;-78
2022/04/12 06:45:04;;;;;;;36.45;21.87;;;;;;;4.91;82.60;101272.22;1717367;83;25793;-77
2022/04/12 06:47:32;;;;;;;35.80;21.57;;;;;;;5.00;82.09;101275.88;1695520;83;25319;-77
2022/04/12 06:49:59;;;;;;;34.85;21.68;;;;;;;5.10;81.91;101278.07;1717581;83;25852;-78
2022/04/12 06:52:25;;;;;;;32.98;19.98;;;;;;;5.20;81.90;101274.47;1718034;83;25909;-77
2022/04/12 06:54:51;;;;;;;36.88;19.15;;;;;;;5.33;81.39;101280.85;1717955;83;27492;-78
2022/04/12 06:57:18;;;;;;;32.90;18.80;;;;;;;5.46;80.83;101276.12;1717800;83;26400;-78
2022/04/12 06:59:44;;;;;;;30.50;18.12;;;;;;;5.55;80.09;101276.64;1717909;83;25822;-78
2022/04/12 07:02:11;;;;;;;28.42;18.50;;;;;;;5.65;79.17;101281.95;1717745;83;26207;-78
2022/04/12 07:04:37;;;;;;;34.75;19.42;;;;;;;5.73;79.76;101277.62;1717838;83;26239;-77
2022/04/12 07:07:04;;;;;;;28.40;17.30;;;;;;;5.86;79.19;101282.20;1717779;83;27486;-78
2022/04/12 07:09:31;;;;;;;35.03;18.90;;;;;;;5.98;79.36;101281.10;1717553;83;26456;-78
2022/04/12 07:11:59;;;;;;;28.95;18.57;;;;;;;6.07;78.01;101284.73;1723691;82;25824;-78
2022/04/12 07:14:28;;;;;;;35.68;17.98;;;;;;;6.15;78.47;101288.85;1705794;83;25805;-78
2022/04/12 07:16:57;;;;;;;27.67;17.35;;;;;;;6.27;78.32;101295.69;1717812;83;25722;-77
2022/04/12 07:19:23;;;;;;;30.40;16.40;;;;;;;6.39;77.47;101294.57;1694972;83;27467;-78
2022/04/12 07:21:50;;;;;;;32.95;23.87;;;;;;;6.46;76.42;101294.33;1717982;83;25777;-77
2022/04/12 07:24:16;;;;;;;32.05;22.37;;;;;;;6.53;75.50;101297.25;1717271;83;25375;-77
2022/04/12 07:26:45;;;;;;;33.50;23.15;;;;;;;6.64;75.96;101291.28;1717999;83;25761;-78
2022/04/12 07:29:11;;;;;;;32.42;21.37;;;;;;;6.77;74.90;101293.13;1717744;83;25752;-78
2022/04/12 07:31:37;;;;;;;30.35;22.52;;;;;;;6.85;73.70;101295.05;1718024;83;27509;-78
2022/04/12 07:34:04;;;;;;;33.05;23.47;;;;;;;6.92;73.92;101301.00;1717201;83;26010;-78
2022/04/12 07:36:30;;;;;;;27.30;20.50;;;;;;;7.03;74.60;101306.62;1717584;83;25820;-77
2022/04/12 07:38:56;;;;;;;27.65;19.77;;;;;;;7.13;72.65;101303.91;1716374;82;25808;-77
2022/04/12 07:41:22;;;;;;;31.48;18.80;;;;;;;7.19;71.47;101305.48;1718918;82;25675;-78
2022/04/12 07:43:49;;;;;;;28.55;16.27;;;;;;;7.27;70.42;101307.44;1708752;83;28277;-78
2022/04/12 07:46:16;;;;;;;30.20;18.07;;;;;;;7.34;70.88;101301.83;1717715;83;25768;-78
2022/04/12 07:48:44;;;;;;;27.90;16.77;;;;;;;7.42;71.21;101306.77;1717724;83;25872;-78
2022/04/12 07:51:11;;;;;;;25.20;15.00;;;;;;;7.48;69.94;101300.86;1717925;83;26273;-78
2022/04/12 07:53:38;;;;;;;25.25;16.82;;;;;;;7.56;69.44;101305.42;1722911;82;25778;-78
2022/04/12 07:56:05;;;;;;;24.47;14.03;;;;;;;7.62;69.87;101308.82;1717986;83;27445;-78
2022/04/12 07:58:31;;;;;;;21.82;13.35;;;;;;;7.68;69.75;101304.21;1717648;83;25808;-78
2022/04/12 08:00:57;;;;;;;20.70;12.40;;;;;;;7.74;68.33;101308.45;1718097;82;25971;-78
2022/04/12 08:03:23;;;;;;;19.32;11.50;;;;;;;7.77;68.10;101305.98;1717283;83;25968;-77
2022/04/12 08:05:52;;;;;;;20.77;12.78;;;;;;;7.80;68.27;101306.50;1717985;83;25746;-77
2022/04/12 08:08:18;;;;;;;17.98;11.93;;;;;;;7.88;67.69;101306.25;1710104;83;27435;-78
2022/04/12 08:10:45;;;;;;;16.93;11.95;;;;;;;7.92;67.76;101298.28;1715356;83;26459;-77
2022/04/12 08:13:11;;;;;;;21.57;12.55;;;;;;;7.97;67.38;101305.34;1715699;82;25511;-78
2022/04/12 08:15:37;;;;;;;19.48;11.40;;;;;;;8.03;66.90;101305.57;1715364;83;25801;-78
2022/04/12 08:18:05;;;;;;;15.95;10.98;;;;;;;8.11;67.19;101303.45;1700552;84;25870;-78
2022/04/12 08:20:32;;;;;;;16.75;11.35;;;;;;;8.20;64.87;101314.55;1684688;84;27685;-77
2022/04/12 08:22:59;;;;;;;19.67;9.45;;;;;;;8.23;65.91;101308.40;1687957;84;26706;-78
2022/04/12 08:25:25;;;;;;;15.25;9.60;;;;;;;8.35;65.32;101313.04;1704320;83;25980;-78
2022/04/12 08:27:52;;;;;;;15.60;9.53;;;;;;;8.46;65.73;101306.12;1681872;84;25846;-78
2022/04/12 08:30:18;;;;;;;18.70;11.88;;;;;;;8.61;65.63;101311.23;1700355;84;25872;-78
2022/04/12 08:32:44;;;;;;;12.93;7.83;;;;;;;8.69;64.37;101308.61;1715803;83;27494;-78
2022/04/12 08:35:11;;;;;;;11.55;7.85;;;;;;;8.82;64.58;101310.37;1700208;84;25777;-77
2022/04/12 08:37:38;;;;;;;15.10;9.18;;;;;;;8.88;62.98;101307.05;1715769;83;26570;-78
2022/04/12 08:40:06;;;;;;;11.57;6.33;;;;;;;8.87;63.00;101307.22;1670398;85;25789;-78
2022/04/12 08:42:32;;;;;;;10.50;6.75;;;;;;;8.83;61.40;101312.02;1707297;83;26631;-78
2022/04/12 08:45:01;;;;;;;9.83;6.62;;;;;;;8.73;61.68;101305.96;1680358;83;27458;-78
2022/04/12 08:47:30;;;;;;;7.05;4.55;;;;;;;8.65;61.50;101305.92;1658892;84;25952;-78
2022/04/12 08:50:00;;;;;;;5.87;3.90;;;;;;;8.61;60.82;101305.05;1680407;83;25789;-78
2022/04/12 08:52:27;;;;;;;4.83;3.37;;;;;;;8.66;60.51;101303.57;1667950;84;25938;-78
2022/04/12 08:54:53;;;;;;;6.17;4.55;;;;;;;8.71;58.62;101309.78;1671892;83;26272;-77
2022/04/12 08:57:19;;;;;;;11.03;5.45;;;;;;;8.66;59.09;101309.44;1677371;84;27431;-78
2022/04/12 08:59:47;;;;;;;9.88;6.28;;;;;;;8.60;59.09;101315.41;1672303;85;25326;-78
2022/04/12 09:02:13;;;;;;;14.70;8.35;;;;;;;8.57;60.21;101315.71;1698257;84;25992;-78
2022/04/12 09:04:39;;;;;;;9.65;7.00;;;;;;;8.57;60.31;101313.88;1706412;81;25799;-78
2022/04/12 09:07:10;;;;;;;13.10;7.15;;;;;;;8.65;60.60;101317.09;1666158;85;25839;-78
2022/04/12 09:09:39;;;;;;;10.60;6.05;;;;;;;8.77;60.84;101319.34;1656819;85;27635;-78
2022/04/12 09:12:10;;;;;;;9.33;5.25;;;;;;;8.96;59.23;101323.65;1686840;84;25963;-78
2022/04/12 09:14:46;;;;;;;6.95;4.58;;;;;;;9.13;58.88;101320.88;1677411;85;25833;-78
2022/04/12 09:17:16;;;;;;;9.20;5.40;;;;;;;9.25;59.41;101322.29;1687055;84;25820;-77
2022/04/12 09:19:46;;;;;;;6.53;5.35;;;;;;;9.46;59.30;101323.19;1665278;84;25893;-76
2022/04/12 09:22:18;;;;;;;8.80;5.45;;;;;;;9.55;58.31;101320.89;1687472;84;27710;-77
2022/04/12 09:24:51;;;;;;;8.73;5.30;;;;;;;9.69;58.47;101317.58;1687274;84;25785;-77
2022/04/12 09:27:21;;;;;;;9.03;6.08;;;;;;;9.79;56.67;101312.09;1685283;85;26505;-77
2022/04/12 09:29:57;;;;;;;8.60;5.80;;;;;;;9.90;57.36;101317.95;1685141;84;26274;-77
2022/04/12 09:32:25;;;;;;;10.50;6.30;;;;;;;9.94;57.25;101311.78;1673546;85;25965;-77
2022/04/12 09:34:53;;;;;;;7.95;5.97;;;;;;;9.94;56.07;101317.14;1703222;84;27489;-77
2022/04/12 09:37:32;;;;;;;9.23;6.15;;;;;;;9.90;55.78;101315.27;1703606;83;25749;-77
2022/04/12 09:40:11;;;;;;;9.13;5.95;;;;;;;9.93;55.00;101313.62;1703434;83;25935;-78
2022/04/12 09:42:53;;;;;;;10.48;5.62;;;;;;;9.94;55.58;101307.24;1693779;83;26158;-77
2022/04/12 09:45:28;;;;;;;6.37;4.97;;;;;;;9.98;55.66;101301.08;1695053;83;25886;-77
2022/04/12 09:48:01;;;;;;;7.60;4.70;;;;;;;10.04;52.81;101301.75;1685879;84;27528;-77
2022/04/12 09:50:29;;;;;;;5.00;4.50;;;;;;;10.01;52.67;101296.22;1673833;85;25941;-77
2022/04/12 09:53:02;;;;;;;4.85;3.72;;;;;;;10.00;52.59;101293.23;1687474;84;25812;-77
2022/04/12 09:55:41;;;;;;;6.15;4.15;;;;;;;10.03;52.05;101290.20;1686178;84;26275;-76
2022/04/12 09:58:13;;;;;;;8.20;5.03;;;;;;;10.09;52.47;101276.14;1686613;84;26358;-77
2022/04/12 10:00:42;;;;;;;7.47;4.90;;;;;;;10.18;51.68;101277.02;1686522;84;27560;-77
2022/04/12 10:03:12;;;;;;;8.13;5.83;;;;;;;10.25;52.53;101270.48;1686407;84;53894;-77
2022/04/12 10:05:39;;;;;;;8.78;5.30;;;;;;;10.37;52.15;101266.48;1687334;84;26280;-77
2022/04/12 10:08:12;;;;;;;4.83;4.25;;;;;;;10.41;51.92;101269.99;1686508;84;25905;-77
2022/04/12 10:10:43;;;;;;;;;;;;;;;10.46;51.81;101270.30;1679502;84;25824;-77
2022/04/12 10:13:11;;;;;;;;;;;;;;;10.46;50.44;101270.30;1717737;83;27516;-77
2022/04/12 10:15:38;;;;;;;8.78;4.37;;;;;;;10.50;52.26;101266.27;1716944;83;26307;-77
2022/04/12 10:18:04;;;;;;;7.92;4.37;;;;;;;10.49;51.73;101266.45;1717512;83;25875;-77
2022/04/12 10:20:31;;;;;;;9.80;4.67;;;;;;;10.48;50.84;101274.14;1718044;83;25779;-77
2022/04/12 10:22:59;;;;;;;8.05;4.28;;;;;;;10.49;49.54;101274.48;1703871;83;25896;-77
2022/04/12 10:25:27;;;;;;;4.87;3.47;;;;;;;10.48;49.21;101279.50;1716905;82;27447;-77
2022/04/12 10:27:59;;;;;;;6.90;3.95;;;;;;;10.45;50.28;101271.33;1717900;83;26104;-76
2022/04/12 10:30:28;;;;;;;6.75;4.53;;;;;;;10.53;50.66;101269.97;1715933;83;25798;-77
2022/04/12 10:33:06;;;;;;;8.73;3.30;;;;;;;10.60;49.91;101272.30;1717088;83;26288;-76
2022/04/12 10:35:56;;;;;;;5.72;3.30;;;;;;;10.68;50.08;101266.92;1717844;83;26006;-77
2022/04/12 10:38:29;;;;;;;7.03;3.70;;;;;;;10.78;50.24;101274.75;1717892;83;27500;-77
2022/04/12 10:40:59;;;;;;;8.43;4.03;;;;;;;10.95;51.01;101274.23;1716428;83;25972;-77
2022/04/12 10:43:33;;;;;;;6.20;4.17;;;;;;;10.96;49.19;101270.52;1704621;83;25891;-77
2022/04/12 10:45:58;;;;;;;5.65;3.80;;;;;;;10.84;49.06;101270.88;1717568;83;26463;-77
2022/04/12 10:48:27;;;;;;;6.90;4.03;;;;;;;10.69;48.37;101273.94;1717897;83;25778;-77
2022/04/12 10:50:59;;;;;;;21.17;10.70;;;;;;;10.58;48.65;101267.63;1717974;83;27410;-77
2022/04/12 10:53:44;;;;;;;9.80;6.00;;;;;;;10.55;48.25;101271.97;1716533;83;25738;-76
2022/04/12 10:56:15;;;;;;;6.42;4.10;;;;;;;10.59;49.26;101267.09;1717618;83;25774;-76
2022/04/12 10:58:43;;;;;;;7.53;4.47;;;;;;;10.72;49.19;101265.57;1718048;83;25880;-77
2022/04/12 11:01:13;;;;;;;5.72;3.42;;;;;;;10.87;48.88;101267.03;1717522;83;25301;-77
2022/04/12 11:03:48;;;;;;;5.83;2.72;;;;;;;10.95;48.50;101263.50;1717093;83;27443;-76
2022/04/12 11:06:29;;;;;;;4.47;2.72;;;;;;;10.91;47.58;101266.17;1704583;83;26227;-76
2022/04/12 11:09:10;;;;;;;3.85;2.77;;;;;;;10.91;47.50;101273.71;1716788;82;25991;-78
2022/04/12 11:11:43;;;;;;;3.85;3.35;;;;;;;10.86;45.90;101282.80;1675230;84;25895;-77
2022/04/12 11:14:32;;;;;;;4.80;3.33;;;;;;;10.84;46.64;101280.27;1684768;84;25925;-76
2022/04/12 11:17:02;;;;;;;4.87;3.15;;;;;;;10.78;46.01;101282.80;1698773;84;28112;-77
2022/04/12 11:19:30;;;;;;;;;;;;;;;10.70;44.97;101279.64;1701578;84;25861;-76
2022/04/12 11:22:01;;;;;;;4.33;2.33;;;;;;;10.69;45.38;101274.47;1698689;83;25793;-77
2022/04/12 11:24:27;;;;;;;5.08;2.67;;;;;;;10.65;44.79;101279.30;1698818;84;26225;-77